sensor_id;sensor_type;location;lat;lon;timestamp;temperature;humidity
21616;DHT22;10970;48.714;9.584;2023-03-11T00:02:23;3.00;99.90
21616;DHT22;10970;48.714;9.584;2023-03-11T00:04:49;2.90;99.90
21616;DHT22;10970;48.714;9.584;2023-03-11T00:07:15;2.90;99.90
21616;DHT22;10970;48.714;9.584;2023-03-11T00:09:41;3.00;99.90
21616;DHT22;10970;48.714;9.584;2023-03-11T00:12:07;3.00;99.90
21616;DHT22;10970;48.714;9.584;2023-03-11T00:14:33;3.00;99.90
21616;DHT22;10970;48.714;9.584;2023-03-11T00:16:58;3.00;99.90
21616;DHT22;10970;48.714;9.584;2023-03-11T00:19:24;3.00;99.90
21616;DHT22;10970;48.714;9.584;2023-03-11T00:21:49;2.90;99.90
21616;DHT22;10970;48.714;9.584;2023-03-11T00:24:15;2.90;99.90
21616;DHT22;10970;48.714;9.584;2023-03-11T00:26:41;2.90;99.90
21616;DHT22;10970;48.714;9.584;2023-03-11T00:29:06;2.90;99.90
21616;DHT22;10970;48.714;9.584;2023-03-11T00:31:32;2.80;99.90
21616;DHT22;10970;48.714;9.584;2023-03-11T00:33:57;2.80;99.90
21616;DHT22;10970;48.714;9.584;2023-03-11T00:36:27;2.70;99.90
21616;DHT22;10970;48.714;9.584;2023-03-11T00:38:56;2.70;99.90
21616;DHT22;10970;48.714;9.584;2023-03-11T00:41:22;2.70;99.90
21616;DHT22;10970;48.714;9.584;2023-03-11T00:43:47;2.70;99.90
21616;DHT22;10970;48.714;9.584;2023-03-11T00:46:13;2.70;99.90
21616;DHT22;10970;48.714;9.584;2023-03-11T00:48:38;2.60;99.90
21616;DHT22;10970;48.714;9.584;2023-03-11T00:51:07;2.70;99.90
21616;DHT22;10970;48.714;9.584;2023-03-11T00:53:35;2.70;99.90
21616;DHT22;10970;48.714;9.584;2023-03-11T00:56:06;2.70;99.90
21616;DHT22;10970;48.714;9.584;2023-03-11T00:58:32;2.60;99.90
21616;DHT22;10970;48.714;9.584;2023-03-11T01:01:17;2.60;99.90
21616;DHT22;10970;48.714;9.584;2023-03-11T01:03:43;2.70;99.90
21616;DHT22;10970;48.714;9.584;2023-03-11T01:06:10;2.70;99.90
21616;DHT22;10970;48.714;9.584;2023-03-11T01:08:36;2.70;99.90
21616;DHT22;10970;48.714;9.584;2023-03-11T01:11:03;2.70;99.90
21616;DHT22;10970;48.714;9.584;2023-03-11T01:13:29;2.70;99.90
21616;DHT22;10970;48.714;9.584;2023-03-11T01:15:55;2.70;99.90
21616;DHT22;10970;48.714;9.584;2023-03-11T01:18:21;2.70;99.90
21616;DHT22;10970;48.714;9.584;2023-03-11T01:20:48;2.70;99.90
21616;DHT22;10970;48.714;9.584;2023-03-11T01:23:14;2.70;99.90
21616;DHT22;10970;48.714;9.584;2023-03-11T01:25:40;2.70;99.90
21616;DHT22;10970;48.714;9.584;2023-03-11T01:28:06;2.70;99.90
21616;DHT22;10970;48.714;9.584;2023-03-11T01:30:33;2.70;99.90
21616;DHT22;10970;48.714;9.584;2023-03-11T01:33:00;2.70;99.90
21616;DHT22;10970;48.714;9.584;2023-03-11T01:35:28;2.60;99.90
21616;DHT22;10970;48.714;9.584;2023-03-11T01:37:54;2.60;99.90
21616;DHT22;10970;48.714;9.584;2023-03-11T01:40:30;2.60;99.90
21616;DHT22;10970;48.714;9.584;2023-03-11T01:42:56;2.60;99.90
21616;DHT22;10970;48.714;9.584;2023-03-11T01:47:53;2.70;99.90
21616;DHT22;10970;48.714;9.584;2023-03-11T01:50:19;2.70;99.90
21616;DHT22;10970;48.714;9.584;2023-03-11T01:52:45;2.70;99.90
21616;DHT22;10970;48.714;9.584;2023-03-11T01:55:13;2.70;99.90
21616;DHT22;10970;48.714;9.584;2023-03-11T01:57:41;2.70;99.90
21616;DHT22;10970;48.714;9.584;2023-03-11T02:00:11;2.70;99.90
21616;DHT22;10970;48.714;9.584;2023-03-11T02:02:58;2.60;99.90
21616;DHT22;10970;48.714;9.584;2023-03-11T02:05:25;2.60;99.90
21616;DHT22;10970;48.714;9.584;2023-03-11T02:07:52;2.50;99.90
21616;DHT22;10970;48.714;9.584;2023-03-11T02:10:19;2.40;99.90
21616;DHT22;10970;48.714;9.584;2023-03-11T02:12:45;2.30;99.90
21616;DHT22;10970;48.714;9.584;2023-03-11T02:15:13;2.30;99.90
21616;DHT22;10970;48.714;9.584;2023-03-11T02:17:40;2.20;99.90
21616;DHT22;10970;48.714;9.584;2023-03-11T02:22:46;2.10;99.90
21616;DHT22;10970;48.714;9.584;2023-03-11T02:27:49;2.00;99.90
21616;DHT22;10970;48.714;9.584;2023-03-11T02:30:15;2.00;99.90
21616;DHT22;10970;48.714;9.584;2023-03-11T02:32:43;1.90;99.90
21616;DHT22;10970;48.714;9.584;2023-03-11T02:35:12;1.90;99.90
21616;DHT22;10970;48.714;9.584;2023-03-11T02:37:46;1.90;99.90
21616;DHT22;10970;48.714;9.584;2023-03-11T02:42:55;1.80;99.90
21616;DHT22;10970;48.714;9.584;2023-03-11T02:45:24;1.80;99.90
21616;DHT22;10970;48.714;9.584;2023-03-11T02:47:54;1.80;99.90
21616;DHT22;10970;48.714;9.584;2023-03-11T02:50:21;1.70;99.90
21616;DHT22;10970;48.714;9.584;2023-03-11T02:52:49;1.70;99.90
21616;DHT22;10970;48.714;9.584;2023-03-11T02:55:15;1.70;99.90
21616;DHT22;10970;48.714;9.584;2023-03-11T02:57:42;1.70;99.90
21616;DHT22;10970;48.714;9.584;2023-03-11T03:00:09;1.70;99.90
21616;DHT22;10970;48.714;9.584;2023-03-11T03:02:36;1.60;99.90
21616;DHT22;10970;48.714;9.584;2023-03-11T03:05:02;1.60;99.90
21616;DHT22;10970;48.714;9.584;2023-03-11T03:07:28;1.70;99.90
21616;DHT22;10970;48.714;9.584;2023-03-11T03:09:53;1.50;99.90
21616;DHT22;10970;48.714;9.584;2023-03-11T03:12:19;1.50;99.90
21616;DHT22;10970;48.714;9.584;2023-03-11T03:14:45;1.50;99.90
21616;DHT22;10970;48.714;9.584;2023-03-11T03:17:10;1.40;99.90
21616;DHT22;10970;48.714;9.584;2023-03-11T03:19:36;1.40;99.90
21616;DHT22;10970;48.714;9.584;2023-03-11T03:22:02;1.40;99.90
21616;DHT22;10970;48.714;9.584;2023-03-11T03:24:27;1.30;99.90
21616;DHT22;10970;48.714;9.584;2023-03-11T03:26:53;1.30;99.90
21616;DHT22;10970;48.714;9.584;2023-03-11T03:29:18;1.30;99.90
21616;DHT22;10970;48.714;9.584;2023-03-11T03:31:44;1.30;99.90
21616;DHT22;10970;48.714;9.584;2023-03-11T03:34:09;1.20;99.90
21616;DHT22;10970;48.714;9.584;2023-03-11T03:36:35;1.20;99.90
21616;DHT22;10970;48.714;9.584;2023-03-11T03:39:01;1.20;99.90
21616;DHT22;10970;48.714;9.584;2023-03-11T03:41:27;1.10;99.90
21616;DHT22;10970;48.714;9.584;2023-03-11T03:43:52;1.10;99.90
21616;DHT22;10970;48.714;9.584;2023-03-11T03:46:19;1.00;99.90
21616;DHT22;10970;48.714;9.584;2023-03-11T03:48:45;1.00;99.90
21616;DHT22;10970;48.714;9.584;2023-03-11T03:51:12;1.00;99.90
21616;DHT22;10970;48.714;9.584;2023-03-11T03:53:39;1.00;99.90
21616;DHT22;10970;48.714;9.584;2023-03-11T03:56:11;0.90;99.90
21616;DHT22;10970;48.714;9.584;2023-03-11T03:58:37;0.90;99.90
21616;DHT22;10970;48.714;9.584;2023-03-11T04:01:03;0.90;99.90
21616;DHT22;10970;48.714;9.584;2023-03-11T04:03:30;0.80;99.90
21616;DHT22;10970;48.714;9.584;2023-03-11T04:06:28;0.80;99.90
21616;DHT22;10970;48.714;9.584;2023-03-11T04:08:54;0.70;99.90
21616;DHT22;10970;48.714;9.584;2023-03-11T04:11:20;0.70;99.90
21616;DHT22;10970;48.714;9.584;2023-03-11T04:13:46;0.70;99.90
21616;DHT22;10970;48.714;9.584;2023-03-11T04:16:19;0.70;99.90
21616;DHT22;10970;48.714;9.584;2023-03-11T04:18:46;0.60;99.90
21616;DHT22;10970;48.714;9.584;2023-03-11T04:21:12;0.60;99.90
21616;DHT22;10970;48.714;9.584;2023-03-11T04:23:37;0.50;99.90
21616;DHT22;10970;48.714;9.584;2023-03-11T04:26:03;0.50;99.90
21616;DHT22;10970;48.714;9.584;2023-03-11T04:28:29;0.50;99.90
21616;DHT22;10970;48.714;9.584;2023-03-11T04:30:54;0.50;99.90
21616;DHT22;10970;48.714;9.584;2023-03-11T04:33:20;0.50;99.90
21616;DHT22;10970;48.714;9.584;2023-03-11T04:35:46;0.50;99.90
21616;DHT22;10970;48.714;9.584;2023-03-11T04:38:11;0.50;99.90
21616;DHT22;10970;48.714;9.584;2023-03-11T04:40:37;0.50;99.90
21616;DHT22;10970;48.714;9.584;2023-03-11T04:43:03;0.60;99.90
21616;DHT22;10970;48.714;9.584;2023-03-11T04:45:29;0.50;99.90
21616;DHT22;10970;48.714;9.584;2023-03-11T04:47:55;0.50;99.90
21616;DHT22;10970;48.714;9.584;2023-03-11T04:50:20;0.50;99.90
21616;DHT22;10970;48.714;9.584;2023-03-11T04:52:46;0.40;99.90
21616;DHT22;10970;48.714;9.584;2023-03-11T04:55:12;0.40;99.90
21616;DHT22;10970;48.714;9.584;2023-03-11T04:57:42;0.30;99.90
21616;DHT22;10970;48.714;9.584;2023-03-11T05:00:10;0.30;99.90
21616;DHT22;10970;48.714;9.584;2023-03-11T05:02:37;0.20;99.90
21616;DHT22;10970;48.714;9.584;2023-03-11T05:05:03;0.20;99.90
21616;DHT22;10970;48.714;9.584;2023-03-11T05:07:29;0.20;99.90
21616;DHT22;10970;48.714;9.584;2023-03-11T05:09:55;0.20;99.90
21616;DHT22;10970;48.714;9.584;2023-03-11T05:12:21;0.20;99.90
21616;DHT22;10970;48.714;9.584;2023-03-11T05:14:46;0.20;99.90
21616;DHT22;10970;48.714;9.584;2023-03-11T05:17:12;0.30;99.90
21616;DHT22;10970;48.714;9.584;2023-03-11T05:19:39;0.30;99.90
21616;DHT22;10970;48.714;9.584;2023-03-11T05:22:06;0.30;99.90
21616;DHT22;10970;48.714;9.584;2023-03-11T05:24:32;0.30;99.90
21616;DHT22;10970;48.714;9.584;2023-03-11T05:26:58;0.30;99.90
21616;DHT22;10970;48.714;9.584;2023-03-11T05:29:24;0.30;99.90
21616;DHT22;10970;48.714;9.584;2023-03-11T05:31:50;0.20;99.90
21616;DHT22;10970;48.714;9.584;2023-03-11T05:34:16;0.20;99.90
21616;DHT22;10970;48.714;9.584;2023-03-11T05:36:42;0.20;99.90
21616;DHT22;10970;48.714;9.584;2023-03-11T05:39:09;0.10;99.90
21616;DHT22;10970;48.714;9.584;2023-03-11T05:41:34;0.10;99.90
21616;DHT22;10970;48.714;9.584;2023-03-11T05:44:01;0.00;99.90
21616;DHT22;10970;48.714;9.584;2023-03-11T05:46:27;0.00;99.90
21616;DHT22;10970;48.714;9.584;2023-03-11T05:48:52;0.00;99.90
21616;DHT22;10970;48.714;9.584;2023-03-11T05:51:18;0.00;99.90
21616;DHT22;10970;48.714;9.584;2023-03-11T05:53:45;0.00;99.90
21616;DHT22;10970;48.714;9.584;2023-03-11T05:56:14;0.00;99.90
21616;DHT22;10970;48.714;9.584;2023-03-11T05:58:40;0.00;99.90
21616;DHT22;10970;48.714;9.584;2023-03-11T06:01:13;0.00;99.90
21616;DHT22;10970;48.714;9.584;2023-03-11T06:03:40;0.00;99.90
21616;DHT22;10970;48.714;9.584;2023-03-11T06:06:08;-0.10;99.90
21616;DHT22;10970;48.714;9.584;2023-03-11T06:08:34;-0.10;99.90
21616;DHT22;10970;48.714;9.584;2023-03-11T06:11:05;-0.10;99.90
21616;DHT22;10970;48.714;9.584;2023-03-11T06:13:31;0.00;99.90
21616;DHT22;10970;48.714;9.584;2023-03-11T06:15:57;0.00;99.90
21616;DHT22;10970;48.714;9.584;2023-03-11T06:18:23;0.10;99.90
21616;DHT22;10970;48.714;9.584;2023-03-11T06:20:51;0.00;99.90
21616;DHT22;10970;48.714;9.584;2023-03-11T06:23:17;0.00;99.90
21616;DHT22;10970;48.714;9.584;2023-03-11T06:25:43;0.10;99.90
21616;DHT22;10970;48.714;9.584;2023-03-11T06:28:09;0.10;99.90
21616;DHT22;10970;48.714;9.584;2023-03-11T06:30:34;0.10;99.90
21616;DHT22;10970;48.714;9.584;2023-03-11T06:33:00;0.20;99.90
21616;DHT22;10970;48.714;9.584;2023-03-11T06:35:26;0.30;99.90
21616;DHT22;10970;48.714;9.584;2023-03-11T06:37:52;0.50;99.90
21616;DHT22;10970;48.714;9.584;2023-03-11T06:40:17;0.80;99.90
21616;DHT22;10970;48.714;9.584;2023-03-11T06:42:45;1.00;99.90
21616;DHT22;10970;48.714;9.584;2023-03-11T06:45:12;1.20;99.90
21616;DHT22;10970;48.714;9.584;2023-03-11T06:47:37;1.10;99.90
21616;DHT22;10970;48.714;9.584;2023-03-11T06:50:03;1.20;99.90
21616;DHT22;10970;48.714;9.584;2023-03-11T06:52:31;1.30;99.90
21616;DHT22;10970;48.714;9.584;2023-03-11T06:54:57;1.20;99.90
21616;DHT22;10970;48.714;9.584;2023-03-11T06:57:23;1.30;99.90
21616;DHT22;10970;48.714;9.584;2023-03-11T06:59:49;1.40;99.90
21616;DHT22;10970;48.714;9.584;2023-03-11T07:02:15;1.50;99.90
21616;DHT22;10970;48.714;9.584;2023-03-11T07:04:41;1.50;99.90
21616;DHT22;10970;48.714;9.584;2023-03-11T07:07:06;1.50;99.90
21616;DHT22;10970;48.714;9.584;2023-03-11T07:09:32;1.70;99.90
21616;DHT22;10970;48.714;9.584;2023-03-11T07:11:57;1.60;99.90
21616;DHT22;10970;48.714;9.584;2023-03-11T07:14:23;1.60;99.90
21616;DHT22;10970;48.714;9.584;2023-03-11T07:16:49;1.70;99.90
21616;DHT22;10970;48.714;9.584;2023-03-11T07:19:14;1.60;99.90
21616;DHT22;10970;48.714;9.584;2023-03-11T07:21:40;1.60;99.90
21616;DHT22;10970;48.714;9.584;2023-03-11T07:24:06;1.70;99.90
21616;DHT22;10970;48.714;9.584;2023-03-11T07:26:34;1.80;99.90
21616;DHT22;10970;48.714;9.584;2023-03-11T07:29:00;1.80;99.90
21616;DHT22;10970;48.714;9.584;2023-03-11T07:31:28;1.80;99.90
21616;DHT22;10970;48.714;9.584;2023-03-11T07:33:57;1.90;99.90
21616;DHT22;10970;48.714;9.584;2023-03-11T07:36:24;1.70;99.90
21616;DHT22;10970;48.714;9.584;2023-03-11T07:38:58;1.80;99.90
21616;DHT22;10970;48.714;9.584;2023-03-11T07:41:25;1.80;99.90
21616;DHT22;10970;48.714;9.584;2023-03-11T07:43:54;1.90;99.90
21616;DHT22;10970;48.714;9.584;2023-03-11T07:46:21;2.00;99.90
21616;DHT22;10970;48.714;9.584;2023-03-11T07:48:48;2.10;99.90
21616;DHT22;10970;48.714;9.584;2023-03-11T07:51:19;2.30;99.90
21616;DHT22;10970;48.714;9.584;2023-03-11T07:53:45;2.50;99.90
21616;DHT22;10970;48.714;9.584;2023-03-11T07:56:12;2.50;99.90
21616;DHT22;10970;48.714;9.584;2023-03-11T07:58:39;2.50;99.90
21616;DHT22;10970;48.714;9.584;2023-03-11T08:01:07;2.80;99.90
21616;DHT22;10970;48.714;9.584;2023-03-11T08:03:34;2.90;99.90
21616;DHT22;10970;48.714;9.584;2023-03-11T08:06:00;3.00;99.90
21616;DHT22;10970;48.714;9.584;2023-03-11T08:08:26;3.20;99.90
21616;DHT22;10970;48.714;9.584;2023-03-11T08:10:52;3.20;99.90
21616;DHT22;10970;48.714;9.584;2023-03-11T08:13:17;3.20;99.90
21616;DHT22;10970;48.714;9.584;2023-03-11T08:15:43;3.40;99.90
21616;DHT22;10970;48.714;9.584;2023-03-11T08:18:09;3.50;99.90
21616;DHT22;10970;48.714;9.584;2023-03-11T08:20:36;3.60;99.90
21616;DHT22;10970;48.714;9.584;2023-03-11T08:23:02;3.80;99.90
21616;DHT22;10970;48.714;9.584;2023-03-11T08:25:28;3.80;99.90
21616;DHT22;10970;48.714;9.584;2023-03-11T08:27:54;3.90;99.90
21616;DHT22;10970;48.714;9.584;2023-03-11T08:30:20;4.00;99.90
21616;DHT22;10970;48.714;9.584;2023-03-11T08:32:46;4.10;99.90
21616;DHT22;10970;48.714;9.584;2023-03-11T08:35:11;3.90;99.90
21616;DHT22;10970;48.714;9.584;2023-03-11T08:37:37;4.00;99.90
21616;DHT22;10970;48.714;9.584;2023-03-11T08:40:03;4.10;99.90
21616;DHT22;10970;48.714;9.584;2023-03-11T08:42:29;4.10;99.90
21616;DHT22;10970;48.714;9.584;2023-03-11T08:44:55;4.00;99.90
21616;DHT22;10970;48.714;9.584;2023-03-11T08:47:20;3.90;99.90
21616;DHT22;10970;48.714;9.584;2023-03-11T08:49:46;3.60;99.90
21616;DHT22;10970;48.714;9.584;2023-03-11T08:52:11;3.50;99.90
21616;DHT22;10970;48.714;9.584;2023-03-11T08:54:37;3.60;99.90
21616;DHT22;10970;48.714;9.584;2023-03-11T08:57:03;3.70;99.90
21616;DHT22;10970;48.714;9.584;2023-03-11T08:59:29;3.90;99.90
21616;DHT22;10970;48.714;9.584;2023-03-11T09:01:55;3.90;99.90
21616;DHT22;10970;48.714;9.584;2023-03-11T09:04:21;3.80;99.90
21616;DHT22;10970;48.714;9.584;2023-03-11T09:06:46;3.90;99.90
21616;DHT22;10970;48.714;9.584;2023-03-11T09:09:13;4.00;99.90
21616;DHT22;10970;48.714;9.584;2023-03-11T09:11:40;3.90;99.90
21616;DHT22;10970;48.714;9.584;2023-03-11T09:14:06;4.00;99.90
21616;DHT22;10970;48.714;9.584;2023-03-11T09:16:32;4.00;99.90
21616;DHT22;10970;48.714;9.584;2023-03-11T09:18:58;4.20;99.90
21616;DHT22;10970;48.714;9.584;2023-03-11T09:21:32;4.20;99.90
21616;DHT22;10970;48.714;9.584;2023-03-11T09:23:58;4.30;99.90
21616;DHT22;10970;48.714;9.584;2023-03-11T09:26:24;4.30;99.90
21616;DHT22;10970;48.714;9.584;2023-03-11T09:28:49;4.40;99.90
21616;DHT22;10970;48.714;9.584;2023-03-11T09:31:16;4.50;99.90
21616;DHT22;10970;48.714;9.584;2023-03-11T09:33:42;4.50;99.90
21616;DHT22;10970;48.714;9.584;2023-03-11T09:36:13;4.60;99.90
21616;DHT22;10970;48.714;9.584;2023-03-11T09:38:39;4.70;99.90
21616;DHT22;10970;48.714;9.584;2023-03-11T09:51:37;4.20;99.90
21616;DHT22;10970;48.714;9.584;2023-03-11T09:54:09;4.10;99.90
21616;DHT22;10970;48.714;9.584;2023-03-11T09:56:36;4.00;99.90
21616;DHT22;10970;48.714;9.584;2023-03-11T09:59:12;3.90;99.90
21616;DHT22;10970;48.714;9.584;2023-03-11T10:01:44;3.90;99.90
21616;DHT22;10970;48.714;9.584;2023-03-11T10:06:45;4.40;99.90
21616;DHT22;10970;48.714;9.584;2023-03-11T10:16:59;4.90;99.90
21616;DHT22;10970;48.714;9.584;2023-03-11T10:22:26;4.50;99.90
21616;DHT22;10970;48.714;9.584;2023-03-11T10:27:40;4.30;99.90
21616;DHT22;10970;48.714;9.584;2023-03-11T10:30:30;4.30;99.90
21616;DHT22;10970;48.714;9.584;2023-03-11T10:33:34;4.20;99.90
21616;DHT22;10970;48.714;9.584;2023-03-11T10:36:05;4.30;99.90
21616;DHT22;10970;48.714;9.584;2023-03-11T10:38:51;4.30;99.90
21616;DHT22;10970;48.714;9.584;2023-03-11T10:41:26;4.20;99.90
21616;DHT22;10970;48.714;9.584;2023-03-11T10:44:00;4.20;99.90
21616;DHT22;10970;48.714;9.584;2023-03-11T10:46:28;4.40;99.90
21616;DHT22;10970;48.714;9.584;2023-03-11T10:48:54;4.80;99.90
21616;DHT22;10970;48.714;9.584;2023-03-11T10:51:22;5.20;99.90
21616;DHT22;10970;48.714;9.584;2023-03-11T10:53:53;5.70;99.90
21616;DHT22;10970;48.714;9.584;2023-03-11T10:56:33;5.90;99.90
21616;DHT22;10970;48.714;9.584;2023-03-11T10:59:01;5.50;99.90
21616;DHT22;10970;48.714;9.584;2023-03-11T11:01:28;5.60;99.90
21616;DHT22;10970;48.714;9.584;2023-03-11T11:03:56;5.80;99.90
21616;DHT22;10970;48.714;9.584;2023-03-11T11:06:34;5.80;99.90
21616;DHT22;10970;48.714;9.584;2023-03-11T11:09:13;5.90;99.90
21616;DHT22;10970;48.714;9.584;2023-03-11T11:11:41;5.80;99.90
21616;DHT22;10970;48.714;9.584;2023-03-11T11:14:07;5.50;99.90
21616;DHT22;10970;48.714;9.584;2023-03-11T11:16:34;5.50;99.90
21616;DHT22;10970;48.714;9.584;2023-03-11T11:19:11;5.70;99.90
21616;DHT22;10970;48.714;9.584;2023-03-11T11:21:48;5.60;99.90
21616;DHT22;10970;48.714;9.584;2023-03-11T11:24:24;5.90;99.90
21616;DHT22;10970;48.714;9.584;2023-03-11T11:29:44;6.20;99.90
21616;DHT22;10970;48.714;9.584;2023-03-11T11:32:22;5.90;99.90
21616;DHT22;10970;48.714;9.584;2023-03-11T11:37:26;5.70;99.90
21616;DHT22;10970;48.714;9.584;2023-03-11T11:42:38;5.70;99.90
21616;DHT22;10970;48.714;9.584;2023-03-11T11:45:21;5.50;99.90
21616;DHT22;10970;48.714;9.584;2023-03-11T11:47:51;5.30;99.90
21616;DHT22;10970;48.714;9.584;2023-03-11T11:50:34;5.30;99.90
21616;DHT22;10970;48.714;9.584;2023-03-11T11:53:24;5.40;99.90
21616;DHT22;10970;48.714;9.584;2023-03-11T11:55:52;5.30;99.90
21616;DHT22;10970;48.714;9.584;2023-03-11T11:58:19;5.30;99.90
21616;DHT22;10970;48.714;9.584;2023-03-11T12:05:57;5.70;99.90
21616;DHT22;10970;48.714;9.584;2023-03-11T12:10:59;5.80;99.90
21616;DHT22;10970;48.714;9.584;2023-03-11T12:26:51;6.50;99.90
21616;DHT22;10970;48.714;9.584;2023-03-11T12:29:28;6.30;99.90
21616;DHT22;10970;48.714;9.584;2023-03-11T12:31:55;6.20;99.90
21616;DHT22;10970;48.714;9.584;2023-03-11T12:34:21;6.20;99.90
21616;DHT22;10970;48.714;9.584;2023-03-11T12:36:50;6.00;99.90
21616;DHT22;10970;48.714;9.584;2023-03-11T12:39:27;6.20;99.90
21616;DHT22;10970;48.714;9.584;2023-03-11T12:44:39;6.50;99.90
21616;DHT22;10970;48.714;9.584;2023-03-11T12:52:51;6.20;99.90
21616;DHT22;10970;48.714;9.584;2023-03-11T12:58:21;6.30;99.90
21616;DHT22;10970;48.714;9.584;2023-03-11T13:01:11;6.50;99.90
21616;DHT22;10970;48.714;9.584;2023-03-11T13:03:59;6.60;99.90
21616;DHT22;10970;48.714;9.584;2023-03-11T13:09:17;6.40;99.90
21616;DHT22;10970;48.714;9.584;2023-03-11T13:11:43;6.10;99.90
21616;DHT22;10970;48.714;9.584;2023-03-11T13:16:47;6.50;99.90
21616;DHT22;10970;48.714;9.584;2023-03-11T13:21:52;6.50;99.90
21616;DHT22;10970;48.714;9.584;2023-03-11T13:26:48;6.30;99.90
21616;DHT22;10970;48.714;9.584;2023-03-11T13:29:42;6.20;99.90
21616;DHT22;10970;48.714;9.584;2023-03-11T13:40:45;5.90;99.90
21616;DHT22;10970;48.714;9.584;2023-03-11T13:45:39;6.30;99.90
21616;DHT22;10970;48.714;9.584;2023-03-11T13:48:15;6.40;99.90
21616;DHT22;10970;48.714;9.584;2023-03-11T13:50:54;6.40;99.90
21616;DHT22;10970;48.714;9.584;2023-03-11T13:54:14;6.30;99.90
21616;DHT22;10970;48.714;9.584;2023-03-11T13:56:17;6.00;99.90
21616;DHT22;10970;48.714;9.584;2023-03-11T13:58:46;6.10;99.90
21616;DHT22;10970;48.714;9.584;2023-03-11T14:01:16;6.20;99.90
21616;DHT22;10970;48.714;9.584;2023-03-11T14:03:44;6.60;99.90
21616;DHT22;10970;48.714;9.584;2023-03-11T14:06:15;7.00;99.90
21616;DHT22;10970;48.714;9.584;2023-03-11T14:08:41;7.20;99.90
21616;DHT22;10970;48.714;9.584;2023-03-11T14:18:41;7.40;99.90
21616;DHT22;10970;48.714;9.584;2023-03-11T14:21:34;7.10;99.90
21616;DHT22;10970;48.714;9.584;2023-03-11T14:24:01;6.70;99.90
21616;DHT22;10970;48.714;9.584;2023-03-11T14:26:30;6.80;99.90
21616;DHT22;10970;48.714;9.584;2023-03-11T14:28:59;6.80;99.90
21616;DHT22;10970;48.714;9.584;2023-03-11T14:31:29;6.70;99.90
21616;DHT22;10970;48.714;9.584;2023-03-11T14:34:16;6.50;99.90
21616;DHT22;10970;48.714;9.584;2023-03-11T14:39:32;6.40;99.90
21616;DHT22;10970;48.714;9.584;2023-03-11T14:44:40;6.90;99.90
21616;DHT22;10970;48.714;9.584;2023-03-11T14:49:44;7.00;99.90
21616;DHT22;10970;48.714;9.584;2023-03-11T14:52:29;6.80;99.90
21616;DHT22;10970;48.714;9.584;2023-03-11T14:54:58;6.90;99.90
21616;DHT22;10970;48.714;9.584;2023-03-11T14:57:37;6.60;99.90
21616;DHT22;10970;48.714;9.584;2023-03-11T15:00:04;6.50;99.90
21616;DHT22;10970;48.714;9.584;2023-03-11T15:02:39;6.10;99.90
21616;DHT22;10970;48.714;9.584;2023-03-11T15:05:17;6.10;99.90
21616;DHT22;10970;48.714;9.584;2023-03-11T15:07:46;6.10;99.90
21616;DHT22;10970;48.714;9.584;2023-03-11T15:10:13;6.30;99.90
21616;DHT22;10970;48.714;9.584;2023-03-11T15:12:41;6.50;99.90
21616;DHT22;10970;48.714;9.584;2023-03-11T15:15:24;6.60;99.90
21616;DHT22;10970;48.714;9.584;2023-03-11T15:17:55;6.70;99.90
21616;DHT22;10970;48.714;9.584;2023-03-11T15:20:28;6.70;99.90
21616;DHT22;10970;48.714;9.584;2023-03-11T15:22:58;6.90;99.90
21616;DHT22;10970;48.714;9.584;2023-03-11T15:25:29;7.10;99.90
21616;DHT22;10970;48.714;9.584;2023-03-11T15:27:55;7.10;99.90
21616;DHT22;10970;48.714;9.584;2023-03-11T15:30:29;7.00;99.90
21616;DHT22;10970;48.714;9.584;2023-03-11T15:32:56;7.10;99.90
21616;DHT22;10970;48.714;9.584;2023-03-11T15:35:27;7.10;99.90
21616;DHT22;10970;48.714;9.584;2023-03-11T15:38:24;7.10;99.90
21616;DHT22;10970;48.714;9.584;2023-03-11T15:41:00;6.80;99.90
21616;DHT22;10970;48.714;9.584;2023-03-11T15:43:44;6.60;99.90
21616;DHT22;10970;48.714;9.584;2023-03-11T15:46:11;6.60;99.90
21616;DHT22;10970;48.714;9.584;2023-03-11T15:48:36;6.60;99.90
21616;DHT22;10970;48.714;9.584;2023-03-11T15:51:02;6.50;99.90
21616;DHT22;10970;48.714;9.584;2023-03-11T15:53:28;6.40;99.90
21616;DHT22;10970;48.714;9.584;2023-03-11T15:55:57;6.30;99.90
21616;DHT22;10970;48.714;9.584;2023-03-11T15:58:25;6.20;99.90
21616;DHT22;10970;48.714;9.584;2023-03-11T16:00:54;6.30;99.90
21616;DHT22;10970;48.714;9.584;2023-03-11T16:03:21;6.10;99.90
21616;DHT22;10970;48.714;9.584;2023-03-11T16:05:47;6.00;99.90
21616;DHT22;10970;48.714;9.584;2023-03-11T16:08:12;5.90;99.90
21616;DHT22;10970;48.714;9.584;2023-03-11T16:10:38;5.90;99.90
21616;DHT22;10970;48.714;9.584;2023-03-11T16:13:04;5.90;99.90
21616;DHT22;10970;48.714;9.584;2023-03-11T16:15:33;5.80;99.90
21616;DHT22;10970;48.714;9.584;2023-03-11T16:18:01;5.80;99.90
21616;DHT22;10970;48.714;9.584;2023-03-11T16:20:32;5.60;99.90
21616;DHT22;10970;48.714;9.584;2023-03-11T16:23:00;5.50;99.90
21616;DHT22;10970;48.714;9.584;2023-03-11T16:25:33;5.50;99.90
21616;DHT22;10970;48.714;9.584;2023-03-11T16:28:00;5.50;99.90
21616;DHT22;10970;48.714;9.584;2023-03-11T16:30:28;5.40;99.90
21616;DHT22;10970;48.714;9.584;2023-03-11T16:32:54;5.40;99.90
21616;DHT22;10970;48.714;9.584;2023-03-11T16:35:19;5.30;99.90
21616;DHT22;10970;48.714;9.584;2023-03-11T16:37:45;5.30;99.90
21616;DHT22;10970;48.714;9.584;2023-03-11T16:40:22;5.30;99.90
21616;DHT22;10970;48.714;9.584;2023-03-11T16:43:04;5.20;99.90
21616;DHT22;10970;48.714;9.584;2023-03-11T16:45:30;5.10;99.90
21616;DHT22;10970;48.714;9.584;2023-03-11T16:47:56;5.10;99.90
21616;DHT22;10970;48.714;9.584;2023-03-11T16:50:22;5.00;99.90
21616;DHT22;10970;48.714;9.584;2023-03-11T16:52:54;4.90;99.90
21616;DHT22;10970;48.714;9.584;2023-03-11T16:55:22;4.90;99.90
21616;DHT22;10970;48.714;9.584;2023-03-11T16:57:48;4.90;99.90
21616;DHT22;10970;48.714;9.584;2023-03-11T17:00:14;4.90;99.90
21616;DHT22;10970;48.714;9.584;2023-03-11T17:02:40;4.80;99.90
21616;DHT22;10970;48.714;9.584;2023-03-11T17:05:06;4.80;99.90
21616;DHT22;10970;48.714;9.584;2023-03-11T17:07:32;4.70;99.90
21616;DHT22;10970;48.714;9.584;2023-03-11T17:09:59;4.70;99.90
21616;DHT22;10970;48.714;9.584;2023-03-11T17:12:25;4.70;99.90
21616;DHT22;10970;48.714;9.584;2023-03-11T17:14:52;4.60;99.90
21616;DHT22;10970;48.714;9.584;2023-03-11T17:17:18;4.60;99.90
21616;DHT22;10970;48.714;9.584;2023-03-11T17:19:44;4.50;99.90
21616;DHT22;10970;48.714;9.584;2023-03-11T17:22:10;4.40;99.90
21616;DHT22;10970;48.714;9.584;2023-03-11T17:24:36;4.40;99.90
21616;DHT22;10970;48.714;9.584;2023-03-11T17:27:03;4.40;99.90
21616;DHT22;10970;48.714;9.584;2023-03-11T17:29:29;4.40;99.90
21616;DHT22;10970;48.714;9.584;2023-03-11T17:31:54;4.30;99.90
21616;DHT22;10970;48.714;9.584;2023-03-11T17:34:21;4.30;99.90
21616;DHT22;10970;48.714;9.584;2023-03-11T17:36:46;4.30;99.90
21616;DHT22;10970;48.714;9.584;2023-03-11T17:39:12;4.20;99.90
21616;DHT22;10970;48.714;9.584;2023-03-11T17:41:38;4.20;99.90
21616;DHT22;10970;48.714;9.584;2023-03-11T17:44:04;4.10;99.90
21616;DHT22;10970;48.714;9.584;2023-03-11T17:46:29;4.10;99.90
21616;DHT22;10970;48.714;9.584;2023-03-11T17:48:55;4.10;99.90